EKVG Airport Information

Runway Information
Runway 13 Length 5902 ft width 98 ft
Elevation 268 ft Threshold 0 ft Heading 118
Runway 31 Length 5902 ft Width 98 ft
Elevation 252 ft Threshold 0 ft Heading 298
Airport Frequencies
Type AFIS Name AFIS Frequency 124.85 MHZ
Airport Navaids
Type NDB Name Myggenes Frequency 337 KHZ
Type NDB Name Nolso Frequency 404 KHZ
Type NDB Name Vagar Frequency 348 KHZ
Airport Weather Information & NOTAM
ADDS - METARS form results

(1525 UTC 23 May 2022)
Data provider http://aviationweather.gov/metar/data/
 
METAR text: EKVG 231520Z AUTO 35006KT 9999 OVC026/// 09/07 Q0999 RMK SCT013/// SCT014/// OVC031/// WIND SKEID 29004KT
Conditions at: EKVG (SORVAAG/VAGAR , DK) observed 1520 UTC 23 May 2022
Temperature: 9.0°C (48°F)
Dewpoint: 7.0°C (45°F) [RH = 87%]
Pressure (altimeter): 29.50 inches Hg (999.0 mb)
Winds: from the N (350 degrees) at 7 MPH (6 knots; 3.1 m/s)
Visibility: 6 or more miles (10+ km)
Ceiling: 2600 feet AGL
Clouds: overcast cloud deck at 2600 feet AGL
Weather: no significant weather observed at this time

METAR text: EKVG 231450Z AUTO 34006KT 9999 OVC024/// 09/07 Q0998 RMK SCT013/// OVC027/// WIND SKEID 28004KT
Conditions at: EKVG (SORVAAG/VAGAR , DK) observed 1450 UTC 23 May 2022
Temperature: 9.0°C (48°F)
Dewpoint: 7.0°C (45°F) [RH = 87%]
Pressure (altimeter): 29.47 inches Hg (998.0 mb)
Winds: from the NNW (340 degrees) at 7 MPH (6 knots; 3.1 m/s)
Visibility: 6 or more miles (10+ km)
Ceiling: 2400 feet AGL
Clouds: overcast cloud deck at 2400 feet AGL
Weather: no significant weather observed at this time

Forecast for: EKVG (SORVAAG/VAGAR , DK)
Text: TAF EKVG 231421Z 2315/2321 34008KT 9999 SCT010 BKN017
Forecast period: 1500 to 2100 UTC 23 May 2022
Forecast type: FROM: standard forecast or significant change
Winds: from the NNW (340 degrees) at 9 MPH (8 knots; 4.1 m/s)
Visibility: 6 or more miles (10+ km)
Ceiling: 1700 feet AGL
Clouds: scattered clouds at 1000 feet AGL
broken clouds at 1700 feet AGL
Weather: no significant weather forecast for this period
Text: TEMPO 2315/2321 4000 -RADZ BR BKN008
Forecast period: 1500 to 2100 UTC 23 May 2022
Forecast type: TEMPORARY: The following changes expected for less than half the time period
Visibility: 2.49 miles (4.01 km)
Ceiling: 800 feet AGL
Clouds: broken clouds at 800 feet AGL
Weather: -RA -DZ BR  (light rain, light drizzle, mist)